Terminal Aerodrome Forecast
Issued by NWS

Home | Current Version | Previous Version | Text Only | Print | Product List | Glossary On
Versions: 1 2 3 4 5 6 7 8 9 10 11 12 13 14
000
FTUS45 KRIW 062331
TAFJAC
TAF
KJAC 062331Z 0700/0724 VRB05KT P6SM VCSH SCT100
     FM070700 VRB04KT P6SM SCT070
     FM071000 VRB05KT P6SM FEW080
     FM071600 16006KT P6SM SCT070 SCT120
     FM072000 34007KT P6SM VCTS BKN060CB
      AMD LTD TO CLD VIS AND WIND=

USA.gov is the U.S. government's official web portal to all federal, state and local government web resources and services.